sensor_id;sensor_type;location;lat;lon;timestamp;temperature;humidity
29203;DHT22;16245;51.170;4.884;2022-07-29T00:01:46;19.90;90.40
29203;DHT22;16245;51.170;4.884;2022-07-29T00:04:12;19.80;90.50
29203;DHT22;16245;51.170;4.884;2022-07-29T00:06:38;19.90;90.40
29203;DHT22;16245;51.170;4.884;2022-07-29T00:09:04;19.90;90.50
29203;DHT22;16245;51.170;4.884;2022-07-29T00:11:29;19.90;90.40
29203;DHT22;16245;51.170;4.884;2022-07-29T00:13:55;19.80;90.50
29203;DHT22;16245;51.170;4.884;2022-07-29T00:16:21;19.80;90.50
29203;DHT22;16245;51.170;4.884;2022-07-29T00:18:46;19.90;90.50
29203;DHT22;16245;51.170;4.884;2022-07-29T00:21:15;19.80;90.70
29203;DHT22;16245;51.170;4.884;2022-07-29T00:23:41;19.80;90.60
29203;DHT22;16245;51.170;4.884;2022-07-29T00:26:07;19.70;90.60
29203;DHT22;16245;51.170;4.884;2022-07-29T00:28:33;19.70;90.80
29203;DHT22;16245;51.170;4.884;2022-07-29T00:30:59;19.70;90.90
29203;DHT22;16245;51.170;4.884;2022-07-29T00:33:24;19.70;90.80
29203;DHT22;16245;51.170;4.884;2022-07-29T00:35:50;19.70;90.90
29203;DHT22;16245;51.170;4.884;2022-07-29T00:38:17;19.60;90.90
29203;DHT22;16245;51.170;4.884;2022-07-29T00:40:44;19.60;90.90
29203;DHT22;16245;51.170;4.884;2022-07-29T00:43:11;19.60;91.10
29203;DHT22;16245;51.170;4.884;2022-07-29T00:45:36;19.60;91.10
29203;DHT22;16245;51.170;4.884;2022-07-29T00:48:03;19.50;91.00
29203;DHT22;16245;51.170;4.884;2022-07-29T00:50:30;19.50;91.50
29203;DHT22;16245;51.170;4.884;2022-07-29T00:52:56;19.50;91.10
29203;DHT22;16245;51.170;4.884;2022-07-29T00:55:22;19.60;91.00
29203;DHT22;16245;51.170;4.884;2022-07-29T00:57:48;19.50;91.00
29203;DHT22;16245;51.170;4.884;2022-07-29T01:00:20;19.40;91.30
29203;DHT22;16245;51.170;4.884;2022-07-29T01:02:47;19.40;91.30
29203;DHT22;16245;51.170;4.884;2022-07-29T01:05:20;19.30;91.30
29203;DHT22;16245;51.170;4.884;2022-07-29T01:07:49;19.30;91.40
29203;DHT22;16245;51.170;4.884;2022-07-29T01:10:16;19.40;91.30
29203;DHT22;16245;51.170;4.884;2022-07-29T01:12:44;19.40;91.30
29203;DHT22;16245;51.170;4.884;2022-07-29T01:15:12;19.30;91.30
29203;DHT22;16245;51.170;4.884;2022-07-29T01:17:44;19.30;91.30
29203;DHT22;16245;51.170;4.884;2022-07-29T01:31:57;19.10;91.60
29203;DHT22;16245;51.170;4.884;2022-07-29T01:34:41;19.10;91.70
29203;DHT22;16245;51.170;4.884;2022-07-29T01:37:12;19.00;91.90
29203;DHT22;16245;51.170;4.884;2022-07-29T01:39:42;19.00;91.90
29203;DHT22;16245;51.170;4.884;2022-07-29T01:47:19;18.90;92.30
29203;DHT22;16245;51.170;4.884;2022-07-29T01:49:49;18.90;92.20
29203;DHT22;16245;51.170;4.884;2022-07-29T01:52:43;18.90;92.20
29203;DHT22;16245;51.170;4.884;2022-07-29T01:55:14;18.80;92.30
29203;DHT22;16245;51.170;4.884;2022-07-29T01:57:43;18.70;92.40
29203;DHT22;16245;51.170;4.884;2022-07-29T02:00:11;18.70;92.40
29203;DHT22;16245;51.170;4.884;2022-07-29T02:02:39;18.70;92.50
29203;DHT22;16245;51.170;4.884;2022-07-29T02:05:07;18.70;92.70
29203;DHT22;16245;51.170;4.884;2022-07-29T02:07:36;18.70;92.80
29203;DHT22;16245;51.170;4.884;2022-07-29T02:10:04;18.70;92.50
29203;DHT22;16245;51.170;4.884;2022-07-29T02:12:32;18.60;92.70
29203;DHT22;16245;51.170;4.884;2022-07-29T02:15:00;18.50;93.00
29203;DHT22;16245;51.170;4.884;2022-07-29T02:17:33;18.60;93.20
29203;DHT22;16245;51.170;4.884;2022-07-29T02:20:03;18.60;93.20
29203;DHT22;16245;51.170;4.884;2022-07-29T02:22:31;18.60;93.00
29203;DHT22;16245;51.170;4.884;2022-07-29T02:24:59;18.50;93.10
29203;DHT22;16245;51.170;4.884;2022-07-29T02:27:26;18.40;93.20
29203;DHT22;16245;51.170;4.884;2022-07-29T02:29:54;18.40;93.30
29203;DHT22;16245;51.170;4.884;2022-07-29T02:32:22;18.40;93.40
29203;DHT22;16245;51.170;4.884;2022-07-29T02:34:50;18.30;93.70
29203;DHT22;16245;51.170;4.884;2022-07-29T02:37:17;18.30;93.80
29203;DHT22;16245;51.170;4.884;2022-07-29T02:39:44;18.30;94.00
29203;DHT22;16245;51.170;4.884;2022-07-29T02:42:13;18.30;93.90
29203;DHT22;16245;51.170;4.884;2022-07-29T02:44:40;18.20;93.90
29203;DHT22;16245;51.170;4.884;2022-07-29T02:50:15;18.30;94.00
29203;DHT22;16245;51.170;4.884;2022-07-29T02:53:00;18.20;94.00
29203;DHT22;16245;51.170;4.884;2022-07-29T02:55:46;18.20;94.10
29203;DHT22;16245;51.170;4.884;2022-07-29T02:58:29;18.20;94.10
29203;DHT22;16245;51.170;4.884;2022-07-29T03:01:08;18.10;94.10
29203;DHT22;16245;51.170;4.884;2022-07-29T03:03:37;18.10;94.10
29203;DHT22;16245;51.170;4.884;2022-07-29T03:06:04;18.10;94.30
29203;DHT22;16245;51.170;4.884;2022-07-29T03:08:31;18.00;94.30
29203;DHT22;16245;51.170;4.884;2022-07-29T03:10:58;18.00;94.60
29203;DHT22;16245;51.170;4.884;2022-07-29T03:13:24;18.00;94.50
29203;DHT22;16245;51.170;4.884;2022-07-29T03:15:50;17.90;94.60
29203;DHT22;16245;51.170;4.884;2022-07-29T03:18:16;17.90;94.70
29203;DHT22;16245;51.170;4.884;2022-07-29T03:20:42;17.90;94.80
29203;DHT22;16245;51.170;4.884;2022-07-29T03:23:10;17.90;94.90
29203;DHT22;16245;51.170;4.884;2022-07-29T03:25:36;17.80;94.90
29203;DHT22;16245;51.170;4.884;2022-07-29T03:28:02;17.80;95.10
29203;DHT22;16245;51.170;4.884;2022-07-29T03:30:27;17.80;95.40
29203;DHT22;16245;51.170;4.884;2022-07-29T03:32:56;17.70;95.50
29203;DHT22;16245;51.170;4.884;2022-07-29T03:35:21;17.60;95.70
29203;DHT22;16245;51.170;4.884;2022-07-29T03:37:48;17.60;96.00
29203;DHT22;16245;51.170;4.884;2022-07-29T03:40:19;17.50;96.00
29203;DHT22;16245;51.170;4.884;2022-07-29T03:42:48;17.50;96.40
29203;DHT22;16245;51.170;4.884;2022-07-29T03:45:17;17.50;96.40
29203;DHT22;16245;51.170;4.884;2022-07-29T03:47:48;17.40;96.50
29203;DHT22;16245;51.170;4.884;2022-07-29T03:50:16;17.40;96.90
29203;DHT22;16245;51.170;4.884;2022-07-29T03:52:42;17.30;97.10
29203;DHT22;16245;51.170;4.884;2022-07-29T03:55:09;17.30;97.30
29203;DHT22;16245;51.170;4.884;2022-07-29T03:57:35;17.20;97.30
29203;DHT22;16245;51.170;4.884;2022-07-29T04:00:02;17.20;97.50
29203;DHT22;16245;51.170;4.884;2022-07-29T04:02:29;17.20;97.60
29203;DHT22;16245;51.170;4.884;2022-07-29T04:04:55;17.10;97.60
29203;DHT22;16245;51.170;4.884;2022-07-29T04:07:21;17.10;97.50
29203;DHT22;16245;51.170;4.884;2022-07-29T04:09:47;17.10;97.50
29203;DHT22;16245;51.170;4.884;2022-07-29T04:12:13;17.10;97.50
29203;DHT22;16245;51.170;4.884;2022-07-29T04:14:38;17.00;97.60
29203;DHT22;16245;51.170;4.884;2022-07-29T04:17:05;17.00;97.70
29203;DHT22;16245;51.170;4.884;2022-07-29T04:19:31;17.10;97.60
29203;DHT22;16245;51.170;4.884;2022-07-29T04:21:57;17.00;98.00
29203;DHT22;16245;51.170;4.884;2022-07-29T04:24:23;17.10;98.20
29203;DHT22;16245;51.170;4.884;2022-07-29T04:26:49;17.10;98.00
29203;DHT22;16245;51.170;4.884;2022-07-29T04:29:15;17.20;98.10
29203;DHT22;16245;51.170;4.884;2022-07-29T04:31:41;17.20;98.20
29203;DHT22;16245;51.170;4.884;2022-07-29T04:34:07;17.10;98.30
29203;DHT22;16245;51.170;4.884;2022-07-29T04:36:33;17.10;98.40
29203;DHT22;16245;51.170;4.884;2022-07-29T04:38:59;17.10;98.40
29203;DHT22;16245;51.170;4.884;2022-07-29T04:41:26;17.20;98.60
29203;DHT22;16245;51.170;4.884;2022-07-29T04:43:51;17.20;98.60
29203;DHT22;16245;51.170;4.884;2022-07-29T04:46:17;17.30;98.90
29203;DHT22;16245;51.170;4.884;2022-07-29T04:48:45;17.30;98.70
29203;DHT22;16245;51.170;4.884;2022-07-29T04:51:11;17.30;98.60
29203;DHT22;16245;51.170;4.884;2022-07-29T04:53:37;17.40;98.90
29203;DHT22;16245;51.170;4.884;2022-07-29T04:56:02;17.40;98.60
29203;DHT22;16245;51.170;4.884;2022-07-29T04:58:28;17.50;98.50
29203;DHT22;16245;51.170;4.884;2022-07-29T05:00:54;17.50;98.40
29203;DHT22;16245;51.170;4.884;2022-07-29T05:03:19;17.60;98.20
29203;DHT22;16245;51.170;4.884;2022-07-29T05:05:45;17.60;98.10
29203;DHT22;16245;51.170;4.884;2022-07-29T05:08:11;17.70;98.10
29203;DHT22;16245;51.170;4.884;2022-07-29T05:10:36;17.70;98.10
29203;DHT22;16245;51.170;4.884;2022-07-29T05:13:07;17.80;98.40
29203;DHT22;16245;51.170;4.884;2022-07-29T05:15:36;17.80;98.10
29203;DHT22;16245;51.170;4.884;2022-07-29T05:18:02;17.80;98.40
29203;DHT22;16245;51.170;4.884;2022-07-29T05:20:28;17.90;98.50
29203;DHT22;16245;51.170;4.884;2022-07-29T05:22:59;17.90;98.10
29203;DHT22;16245;51.170;4.884;2022-07-29T05:25:26;17.90;97.90
29203;DHT22;16245;51.170;4.884;2022-07-29T05:27:52;18.00;98.00
29203;DHT22;16245;51.170;4.884;2022-07-29T05:30:18;18.00;97.90
29203;DHT22;16245;51.170;4.884;2022-07-29T05:32:44;18.00;97.90
29203;DHT22;16245;51.170;4.884;2022-07-29T05:35:10;18.00;98.00
29203;DHT22;16245;51.170;4.884;2022-07-29T05:37:35;18.10;98.20
29203;DHT22;16245;51.170;4.884;2022-07-29T05:40:02;18.20;98.30
29203;DHT22;16245;51.170;4.884;2022-07-29T05:42:27;18.40;98.10
29203;DHT22;16245;51.170;4.884;2022-07-29T05:44:55;18.50;97.80
29203;DHT22;16245;51.170;4.884;2022-07-29T05:47:21;18.60;97.60
29203;DHT22;16245;51.170;4.884;2022-07-29T05:49:47;18.70;97.60
29203;DHT22;16245;51.170;4.884;2022-07-29T05:52:12;18.90;97.50
29203;DHT22;16245;51.170;4.884;2022-07-29T05:54:39;19.00;97.40
29203;DHT22;16245;51.170;4.884;2022-07-29T05:57:05;19.50;97.10
29203;DHT22;16245;51.170;4.884;2022-07-29T05:59:35;20.20;96.00
29203;DHT22;16245;51.170;4.884;2022-07-29T06:02:01;21.10;94.70
29203;DHT22;16245;51.170;4.884;2022-07-29T06:04:26;21.90;93.10
29203;DHT22;16245;51.170;4.884;2022-07-29T06:06:54;22.60;91.80
29203;DHT22;16245;51.170;4.884;2022-07-29T06:09:20;23.20;90.50
29203;DHT22;16245;51.170;4.884;2022-07-29T06:11:46;23.60;89.60
29203;DHT22;16245;51.170;4.884;2022-07-29T06:14:11;24.00;88.40
29203;DHT22;16245;51.170;4.884;2022-07-29T06:16:37;24.50;86.70
29203;DHT22;16245;51.170;4.884;2022-07-29T06:19:03;24.80;86.00
29203;DHT22;16245;51.170;4.884;2022-07-29T06:21:29;25.10;84.60
29203;DHT22;16245;51.170;4.884;2022-07-29T06:23:55;25.30;84.20
29203;DHT22;16245;51.170;4.884;2022-07-29T06:26:20;25.70;82.60
29203;DHT22;16245;51.170;4.884;2022-07-29T06:28:46;25.70;82.20
29203;DHT22;16245;51.170;4.884;2022-07-29T06:31:12;25.50;82.60
29203;DHT22;16245;51.170;4.884;2022-07-29T06:33:37;25.30;83.80
29203;DHT22;16245;51.170;4.884;2022-07-29T06:36:06;25.70;82.80
29203;DHT22;16245;51.170;4.884;2022-07-29T06:38:33;25.80;81.00
29203;DHT22;16245;51.170;4.884;2022-07-29T06:40:59;26.20;81.90
29203;DHT22;16245;51.170;4.884;2022-07-29T06:43:26;26.90;81.00
29203;DHT22;16245;51.170;4.884;2022-07-29T06:45:52;27.30;79.00
29203;DHT22;16245;51.170;4.884;2022-07-29T06:48:18;27.60;76.40
29203;DHT22;16245;51.170;4.884;2022-07-29T06:50:43;27.80;76.90
29203;DHT22;16245;51.170;4.884;2022-07-29T06:53:09;27.90;77.10
29203;DHT22;16245;51.170;4.884;2022-07-29T06:55:35;28.10;75.80
29203;DHT22;16245;51.170;4.884;2022-07-29T06:58:02;28.10;75.00
29203;DHT22;16245;51.170;4.884;2022-07-29T07:00:28;28.40;75.60
29203;DHT22;16245;51.170;4.884;2022-07-29T07:02:53;28.50;75.50
29203;DHT22;16245;51.170;4.884;2022-07-29T07:05:19;28.70;73.40
29203;DHT22;16245;51.170;4.884;2022-07-29T07:07:45;28.50;73.90
29203;DHT22;16245;51.170;4.884;2022-07-29T07:10:10;28.70;75.00
29203;DHT22;16245;51.170;4.884;2022-07-29T07:12:36;28.80;75.30
29203;DHT22;16245;51.170;4.884;2022-07-29T07:15:02;28.60;75.80
29203;DHT22;16245;51.170;4.884;2022-07-29T07:17:28;29.00;74.60
29203;DHT22;16245;51.170;4.884;2022-07-29T07:19:54;29.40;74.00
29203;DHT22;16245;51.170;4.884;2022-07-29T07:22:19;29.70;73.40
29203;DHT22;16245;51.170;4.884;2022-07-29T07:24:45;29.90;72.90
29203;DHT22;16245;51.170;4.884;2022-07-29T07:27:11;29.90;72.40
29203;DHT22;16245;51.170;4.884;2022-07-29T07:29:36;30.20;71.20
29203;DHT22;16245;51.170;4.884;2022-07-29T07:32:06;30.30;70.00
29203;DHT22;16245;51.170;4.884;2022-07-29T07:34:32;30.30;70.70
29203;DHT22;16245;51.170;4.884;2022-07-29T07:36:58;29.80;71.80
29203;DHT22;16245;51.170;4.884;2022-07-29T07:39:23;30.00;74.10
29203;DHT22;16245;51.170;4.884;2022-07-29T07:41:50;30.10;73.00
29203;DHT22;16245;51.170;4.884;2022-07-29T07:44:15;30.90;70.30
29203;DHT22;16245;51.170;4.884;2022-07-29T07:46:41;31.40;69.30
29203;DHT22;16245;51.170;4.884;2022-07-29T07:49:07;31.70;67.20
29203;DHT22;16245;51.170;4.884;2022-07-29T07:51:32;31.60;69.50
29203;DHT22;16245;51.170;4.884;2022-07-29T07:53:59;31.70;68.90
29203;DHT22;16245;51.170;4.884;2022-07-29T07:56:25;31.40;69.10
29203;DHT22;16245;51.170;4.884;2022-07-29T07:58:50;31.40;70.00
29203;DHT22;16245;51.170;4.884;2022-07-29T08:01:16;32.10;67.50
29203;DHT22;16245;51.170;4.884;2022-07-29T08:03:44;32.80;66.80
29203;DHT22;16245;51.170;4.884;2022-07-29T08:06:09;32.80;66.60
29203;DHT22;16245;51.170;4.884;2022-07-29T08:08:35;33.20;64.90
29203;DHT22;16245;51.170;4.884;2022-07-29T08:11:01;33.30;63.90
29203;DHT22;16245;51.170;4.884;2022-07-29T08:13:28;33.10;64.90
29203;DHT22;16245;51.170;4.884;2022-07-29T08:15:56;33.30;64.90
29203;DHT22;16245;51.170;4.884;2022-07-29T08:18:37;33.40;64.30
29203;DHT22;16245;51.170;4.884;2022-07-29T08:21:03;32.90;66.00
29203;DHT22;16245;51.170;4.884;2022-07-29T08:23:29;33.40;63.60
29203;DHT22;16245;51.170;4.884;2022-07-29T08:26:08;33.10;66.50
29203;DHT22;16245;51.170;4.884;2022-07-29T08:28:37;33.20;65.90
29203;DHT22;16245;51.170;4.884;2022-07-29T08:31:03;33.60;62.50
29203;DHT22;16245;51.170;4.884;2022-07-29T08:33:29;33.20;64.80
29203;DHT22;16245;51.170;4.884;2022-07-29T08:35:54;33.70;63.00
29203;DHT22;16245;51.170;4.884;2022-07-29T08:38:20;33.80;62.90
29203;DHT22;16245;51.170;4.884;2022-07-29T08:40:46;34.00;62.10
29203;DHT22;16245;51.170;4.884;2022-07-29T08:43:12;33.70;64.80
29203;DHT22;16245;51.170;4.884;2022-07-29T08:45:43;33.90;62.00
29203;DHT22;16245;51.170;4.884;2022-07-29T08:48:11;34.10;64.00
29203;DHT22;16245;51.170;4.884;2022-07-29T08:50:38;34.80;60.90
29203;DHT22;16245;51.170;4.884;2022-07-29T08:53:06;34.80;62.10
29203;DHT22;16245;51.170;4.884;2022-07-29T08:55:32;35.10;59.60
29203;DHT22;16245;51.170;4.884;2022-07-29T08:57:59;35.40;58.20
29203;DHT22;16245;51.170;4.884;2022-07-29T09:00:26;34.70;61.40
29203;DHT22;16245;51.170;4.884;2022-07-29T09:02:57;34.50;61.90
29203;DHT22;16245;51.170;4.884;2022-07-29T09:05:24;34.40;62.20
29203;DHT22;16245;51.170;4.884;2022-07-29T09:07:51;34.90;59.80
29203;DHT22;16245;51.170;4.884;2022-07-29T09:10:17;35.30;59.90
29203;DHT22;16245;51.170;4.884;2022-07-29T09:12:43;35.60;58.90
29203;DHT22;16245;51.170;4.884;2022-07-29T09:15:09;35.20;60.50
29203;DHT22;16245;51.170;4.884;2022-07-29T09:17:47;35.10;61.00
29203;DHT22;16245;51.170;4.884;2022-07-29T09:20:18;35.30;60.30
29203;DHT22;16245;51.170;4.884;2022-07-29T09:22:44;35.80;59.00
29203;DHT22;16245;51.170;4.884;2022-07-29T09:25:14;35.50;59.00
29203;DHT22;16245;51.170;4.884;2022-07-29T09:27:40;35.70;58.90
29203;DHT22;16245;51.170;4.884;2022-07-29T09:30:13;36.10;58.40
29203;DHT22;16245;51.170;4.884;2022-07-29T09:32:56;35.70;59.00
29203;DHT22;16245;51.170;4.884;2022-07-29T09:35:24;36.20;57.60
29203;DHT22;16245;51.170;4.884;2022-07-29T09:37:50;36.30;59.20
29203;DHT22;16245;51.170;4.884;2022-07-29T09:40:17;35.80;59.00
29203;DHT22;16245;51.170;4.884;2022-07-29T09:42:44;36.50;56.50
29203;DHT22;16245;51.170;4.884;2022-07-29T09:45:10;36.30;57.60
29203;DHT22;16245;51.170;4.884;2022-07-29T09:47:46;36.30;57.50
29203;DHT22;16245;51.170;4.884;2022-07-29T09:50:15;36.20;57.70
29203;DHT22;16245;51.170;4.884;2022-07-29T09:52:48;36.10;56.90
29203;DHT22;16245;51.170;4.884;2022-07-29T09:55:14;36.00;57.00
29203;DHT22;16245;51.170;4.884;2022-07-29T09:57:40;36.10;57.00
29203;DHT22;16245;51.170;4.884;2022-07-29T10:00:11;36.40;56.30
29203;DHT22;16245;51.170;4.884;2022-07-29T10:02:39;36.00;56.60
29203;DHT22;16245;51.170;4.884;2022-07-29T10:05:17;35.80;56.70
29203;DHT22;16245;51.170;4.884;2022-07-29T10:07:45;35.40;58.20
29203;DHT22;16245;51.170;4.884;2022-07-29T10:10:17;36.00;55.20
29203;DHT22;16245;51.170;4.884;2022-07-29T10:12:54;36.20;54.10
29203;DHT22;16245;51.170;4.884;2022-07-29T10:15:22;35.90;53.60
29203;DHT22;16245;51.170;4.884;2022-07-29T10:17:50;36.00;54.00
29203;DHT22;16245;51.170;4.884;2022-07-29T10:20:16;36.10;53.50
29203;DHT22;16245;51.170;4.884;2022-07-29T10:22:42;36.30;54.50
29203;DHT22;16245;51.170;4.884;2022-07-29T10:25:09;36.20;54.60
29203;DHT22;16245;51.170;4.884;2022-07-29T10:27:36;36.00;55.10
29203;DHT22;16245;51.170;4.884;2022-07-29T10:30:05;35.70;54.70
29203;DHT22;16245;51.170;4.884;2022-07-29T10:38:41;36.10;53.20
29203;DHT22;16245;51.170;4.884;2022-07-29T10:44:18;36.40;53.10
29203;DHT22;16245;51.170;4.884;2022-07-29T10:46:44;36.20;53.60
29203;DHT22;16245;51.170;4.884;2022-07-29T10:49:16;35.70;54.10
29203;DHT22;16245;51.170;4.884;2022-07-29T10:54:48;35.80;53.50
29203;DHT22;16245;51.170;4.884;2022-07-29T10:57:26;35.80;53.30
29203;DHT22;16245;51.170;4.884;2022-07-29T11:05:14;36.40;50.90
29203;DHT22;16245;51.170;4.884;2022-07-29T11:10:33;36.20;50.50
29203;DHT22;16245;51.170;4.884;2022-07-29T11:12:58;35.90;50.80
29203;DHT22;16245;51.170;4.884;2022-07-29T11:15:24;35.60;51.80
29203;DHT22;16245;51.170;4.884;2022-07-29T11:20:44;35.70;52.10
29203;DHT22;16245;51.170;4.884;2022-07-29T11:26:20;34.80;52.40
29203;DHT22;16245;51.170;4.884;2022-07-29T11:31:31;34.20;55.00
29203;DHT22;16245;51.170;4.884;2022-07-29T11:34:19;34.40;54.60
29203;DHT22;16245;51.170;4.884;2022-07-29T11:39:33;34.50;55.00
29203;DHT22;16245;51.170;4.884;2022-07-29T11:45:10;33.30;54.80
29203;DHT22;16245;51.170;4.884;2022-07-29T11:48:02;32.90;56.30
29203;DHT22;16245;51.170;4.884;2022-07-29T11:50:36;32.60;57.40
29203;DHT22;16245;51.170;4.884;2022-07-29T11:53:10;32.70;57.00
29203;DHT22;16245;51.170;4.884;2022-07-29T11:55:41;32.90;57.50
29203;DHT22;16245;51.170;4.884;2022-07-29T11:58:07;33.00;57.10
29203;DHT22;16245;51.170;4.884;2022-07-29T12:00:40;32.90;54.80
29203;DHT22;16245;51.170;4.884;2022-07-29T12:03:08;32.30;55.10
29203;DHT22;16245;51.170;4.884;2022-07-29T12:08:12;31.50;58.10
29203;DHT22;16245;51.170;4.884;2022-07-29T12:10:39;31.50;57.70
29203;DHT22;16245;51.170;4.884;2022-07-29T12:13:05;31.40;55.80
29203;DHT22;16245;51.170;4.884;2022-07-29T12:15:31;31.30;56.70
29203;DHT22;16245;51.170;4.884;2022-07-29T12:17:56;31.40;57.50
29203;DHT22;16245;51.170;4.884;2022-07-29T12:20:28;31.30;57.50
29203;DHT22;16245;51.170;4.884;2022-07-29T12:22:55;31.20;57.60
29203;DHT22;16245;51.170;4.884;2022-07-29T12:25:22;31.10;57.90
29203;DHT22;16245;51.170;4.884;2022-07-29T12:27:58;31.10;58.70
29203;DHT22;16245;51.170;4.884;2022-07-29T12:30:47;31.00;57.80
29203;DHT22;16245;51.170;4.884;2022-07-29T12:33:23;31.10;58.70
29203;DHT22;16245;51.170;4.884;2022-07-29T12:36:02;31.10;58.80
29203;DHT22;16245;51.170;4.884;2022-07-29T12:38:28;31.10;59.20
29203;DHT22;16245;51.170;4.884;2022-07-29T12:40:54;31.10;57.20
29203;DHT22;16245;51.170;4.884;2022-07-29T12:43:21;31.00;58.60
29203;DHT22;16245;51.170;4.884;2022-07-29T12:45:49;31.10;59.30
29203;DHT22;16245;51.170;4.884;2022-07-29T12:48:33;31.10;59.60
29203;DHT22;16245;51.170;4.884;2022-07-29T12:51:00;31.30;58.40
29203;DHT22;16245;51.170;4.884;2022-07-29T12:53:27;31.20;56.40
29203;DHT22;16245;51.170;4.884;2022-07-29T12:55:55;31.00;58.10
29203;DHT22;16245;51.170;4.884;2022-07-29T12:58:27;30.90;59.10
29203;DHT22;16245;51.170;4.884;2022-07-29T13:01:20;31.00;57.70
29203;DHT22;16245;51.170;4.884;2022-07-29T13:03:56;31.00;56.90
29203;DHT22;16245;51.170;4.884;2022-07-29T13:09:05;31.00;57.40
29203;DHT22;16245;51.170;4.884;2022-07-29T13:11:34;30.90;58.90
29203;DHT22;16245;51.170;4.884;2022-07-29T13:14:00;30.70;57.30
29203;DHT22;16245;51.170;4.884;2022-07-29T13:16:26;30.40;58.30
29203;DHT22;16245;51.170;4.884;2022-07-29T13:19:10;30.40;59.10
29203;DHT22;16245;51.170;4.884;2022-07-29T13:21:37;30.60;58.60
29203;DHT22;16245;51.170;4.884;2022-07-29T13:24:04;31.00;58.10
29203;DHT22;16245;51.170;4.884;2022-07-29T13:26:31;31.10;58.10
29203;DHT22;16245;51.170;4.884;2022-07-29T13:28:57;31.10;57.90
29203;DHT22;16245;51.170;4.884;2022-07-29T13:31:22;31.10;57.00
29203;DHT22;16245;51.170;4.884;2022-07-29T13:33:48;31.20;56.40
29203;DHT22;16245;51.170;4.884;2022-07-29T13:36:14;31.10;55.80
29203;DHT22;16245;51.170;4.884;2022-07-29T13:38:40;31.10;55.50
29203;DHT22;16245;51.170;4.884;2022-07-29T13:41:05;31.10;58.40
29203;DHT22;16245;51.170;4.884;2022-07-29T13:43:31;31.00;57.60
29203;DHT22;16245;51.170;4.884;2022-07-29T13:45:57;31.10;56.20
29203;DHT22;16245;51.170;4.884;2022-07-29T13:48:22;31.00;56.60
29203;DHT22;16245;51.170;4.884;2022-07-29T13:50:48;30.80;57.60
29203;DHT22;16245;51.170;4.884;2022-07-29T13:53:14;30.80;57.50
29203;DHT22;16245;51.170;4.884;2022-07-29T13:55:39;30.90;58.00
29203;DHT22;16245;51.170;4.884;2022-07-29T13:58:05;31.00;56.20
29203;DHT22;16245;51.170;4.884;2022-07-29T14:00:31;31.00;56.20
29203;DHT22;16245;51.170;4.884;2022-07-29T14:02:56;30.70;56.50
29203;DHT22;16245;51.170;4.884;2022-07-29T14:05:22;30.60;56.60
29203;DHT22;16245;51.170;4.884;2022-07-29T14:07:48;30.40;57.90
29203;DHT22;16245;51.170;4.884;2022-07-29T14:10:14;30.50;57.70
29203;DHT22;16245;51.170;4.884;2022-07-29T14:12:39;30.60;57.20
29203;DHT22;16245;51.170;4.884;2022-07-29T14:15:07;30.20;57.90
29203;DHT22;16245;51.170;4.884;2022-07-29T14:17:33;30.10;57.70
29203;DHT22;16245;51.170;4.884;2022-07-29T14:19:59;29.60;59.00
29203;DHT22;16245;51.170;4.884;2022-07-29T14:22:24;29.50;59.40
29203;DHT22;16245;51.170;4.884;2022-07-29T14:24:50;29.50;59.80
29203;DHT22;16245;51.170;4.884;2022-07-29T14:27:17;29.60;60.00
29203;DHT22;16245;51.170;4.884;2022-07-29T14:29:43;29.70;58.70
29203;DHT22;16245;51.170;4.884;2022-07-29T14:32:09;29.90;61.60
29203;DHT22;16245;51.170;4.884;2022-07-29T14:34:36;30.10;59.70
29203;DHT22;16245;51.170;4.884;2022-07-29T14:37:03;30.20;58.50
29203;DHT22;16245;51.170;4.884;2022-07-29T14:39:30;30.20;57.80
29203;DHT22;16245;51.170;4.884;2022-07-29T14:41:56;29.90;59.10
29203;DHT22;16245;51.170;4.884;2022-07-29T14:44:22;29.70;58.70
29203;DHT22;16245;51.170;4.884;2022-07-29T14:46:47;29.60;57.70
29203;DHT22;16245;51.170;4.884;2022-07-29T14:49:13;29.40;58.70
29203;DHT22;16245;51.170;4.884;2022-07-29T14:51:39;29.10;59.20
29203;DHT22;16245;51.170;4.884;2022-07-29T14:54:04;28.90;59.90
29203;DHT22;16245;51.170;4.884;2022-07-29T14:56:30;28.80;60.30
29203;DHT22;16245;51.170;4.884;2022-07-29T14:58:56;28.70;61.00
29203;DHT22;16245;51.170;4.884;2022-07-29T15:01:23;28.70;60.30
29203;DHT22;16245;51.170;4.884;2022-07-29T15:03:49;28.80;60.60
29203;DHT22;16245;51.170;4.884;2022-07-29T15:06:15;28.80;59.20
29203;DHT22;16245;51.170;4.884;2022-07-29T15:08:41;28.70;60.10
29203;DHT22;16245;51.170;4.884;2022-07-29T15:11:07;28.90;61.40
29203;DHT22;16245;51.170;4.884;2022-07-29T15:13:33;29.00;59.30
29203;DHT22;16245;51.170;4.884;2022-07-29T15:15:59;29.00;60.70
29203;DHT22;16245;51.170;4.884;2022-07-29T15:18:25;29.00;60.80
29203;DHT22;16245;51.170;4.884;2022-07-29T15:20:51;28.90;60.30
29203;DHT22;16245;51.170;4.884;2022-07-29T15:23:17;28.70;60.60
29203;DHT22;16245;51.170;4.884;2022-07-29T15:25:43;28.50;62.00
29203;DHT22;16245;51.170;4.884;2022-07-29T15:28:08;28.30;62.50
29203;DHT22;16245;51.170;4.884;2022-07-29T15:30:35;28.20;61.10
29203;DHT22;16245;51.170;4.884;2022-07-29T15:33:08;28.20;61.60
29203;DHT22;16245;51.170;4.884;2022-07-29T15:35:35;28.10;62.40
29203;DHT22;16245;51.170;4.884;2022-07-29T15:38:01;28.10;63.90
29203;DHT22;16245;51.170;4.884;2022-07-29T15:40:26;28.10;61.80
29203;DHT22;16245;51.170;4.884;2022-07-29T15:42:52;28.10;63.30
29203;DHT22;16245;51.170;4.884;2022-07-29T15:45:17;28.30;63.50
29203;DHT22;16245;51.170;4.884;2022-07-29T15:47:43;28.50;63.10
29203;DHT22;16245;51.170;4.884;2022-07-29T15:50:09;28.90;62.40
29203;DHT22;16245;51.170;4.884;2022-07-29T15:52:40;29.00;62.20
29203;DHT22;16245;51.170;4.884;2022-07-29T15:55:06;29.00;61.00
29203;DHT22;16245;51.170;4.884;2022-07-29T15:57:32;29.00;62.00
29203;DHT22;16245;51.170;4.884;2022-07-29T15:59:57;29.00;61.80
29203;DHT22;16245;51.170;4.884;2022-07-29T16:02:23;29.00;60.30
29203;DHT22;16245;51.170;4.884;2022-07-29T16:04:49;29.10;61.70
29203;DHT22;16245;51.170;4.884;2022-07-29T16:07:15;29.10;62.10
29203;DHT22;16245;51.170;4.884;2022-07-29T16:09:41;29.00;61.40
29203;DHT22;16245;51.170;4.884;2022-07-29T16:12:06;28.70;61.70
29203;DHT22;16245;51.170;4.884;2022-07-29T16:14:33;28.70;62.80
29203;DHT22;16245;51.170;4.884;2022-07-29T16:16:58;28.70;62.60
29203;DHT22;16245;51.170;4.884;2022-07-29T16:19:28;28.60;61.60
29203;DHT22;16245;51.170;4.884;2022-07-29T16:21:53;28.70;62.20
29203;DHT22;16245;51.170;4.884;2022-07-29T16:24:19;28.70;62.40
29203;DHT22;16245;51.170;4.884;2022-07-29T16:26:45;28.80;62.20
29203;DHT22;16245;51.170;4.884;2022-07-29T16:29:10;28.80;62.00
29203;DHT22;16245;51.170;4.884;2022-07-29T16:31:36;28.90;61.50
29203;DHT22;16245;51.170;4.884;2022-07-29T16:34:02;28.90;61.50